sensor_id;sensor_type;location;lat;lon;timestamp;pressure;altitude;pressure_sealevel;temperature;humidity
2000;BME280;1001;48.87406500;9.59633600;2023-02-26T00:01:17;94399.94;;;-2.26;100.00
2000;BME280;1001;48.87406500;9.59633600;2023-02-26T00:03:47;94400.28;;;-2.29;100.00
2000;BME280;1001;48.87406500;9.59633600;2023-02-26T00:06:15;94402.69;;;-2.28;100.00
2000;BME280;1001;48.87406500;9.59633600;2023-02-26T00:08:42;94406.09;;;-2.35;100.00
2000;BME280;1001;48.87406500;9.59633600;2023-02-26T00:11:08;94413.59;;;-2.34;100.00
2000;BME280;1001;48.87406500;9.59633600;2023-02-26T00:13:37;94408.34;;;-2.40;100.00
2000;BME280;1001;48.87406500;9.59633600;2023-02-26T00:16:11;94407.72;;;-2.42;100.00
2000;BME280;1001;48.87406500;9.59633600;2023-02-26T00:18:39;94416.84;;;-2.48;100.00
2000;BME280;1001;48.87406500;9.59633600;2023-02-26T00:21:08;94412.34;;;-2.46;100.00
2000;BME280;1001;48.87406500;9.59633600;2023-02-26T00:23:42;94406.28;;;-2.45;100.00
2000;BME280;1001;48.87406500;9.59633600;2023-02-26T00:26:08;94411.22;;;-2.43;100.00
2000;BME280;1001;48.87406500;9.59633600;2023-02-26T00:28:36;94402.91;;;-2.37;100.00
2000;BME280;1001;48.87406500;9.59633600;2023-02-26T00:31:03;94411.03;;;-2.34;100.00
2000;BME280;1001;48.87406500;9.59633600;2023-02-26T00:33:30;94417.63;;;-2.39;100.00
2000;BME280;1001;48.87406500;9.59633600;2023-02-26T00:36:07;94412.97;;;-2.36;100.00
2000;BME280;1001;48.87406500;9.59633600;2023-02-26T00:38:39;94414.56;;;-2.35;100.00
2000;BME280;1001;48.87406500;9.59633600;2023-02-26T00:41:10;94424.44;;;-2.32;100.00
2000;BME280;1001;48.87406500;9.59633600;2023-02-26T00:43:37;94422.06;;;-2.33;100.00
2000;BME280;1001;48.87406500;9.59633600;2023-02-26T00:46:10;94418.75;;;-2.42;100.00
2000;BME280;1001;48.87406500;9.59633600;2023-02-26T00:48:45;94413.63;;;-2.42;100.00
2000;BME280;1001;48.87406500;9.59633600;2023-02-26T00:51:19;94426.94;;;-2.46;100.00
2000;BME280;1001;48.87406500;9.59633600;2023-02-26T00:53:51;94411.09;;;-2.50;100.00
2000;BME280;1001;48.87406500;9.59633600;2023-02-26T00:56:22;94417.34;;;-2.52;100.00
2000;BME280;1001;48.87406500;9.59633600;2023-02-26T00:58:48;94418.16;;;-2.52;100.00
2000;BME280;1001;48.87406500;9.59633600;2023-02-26T01:01:15;94417.03;;;-2.57;100.00
2000;BME280;1001;48.87406500;9.59633600;2023-02-26T01:03:42;94406.81;;;-2.57;100.00
2000;BME280;1001;48.87406500;9.59633600;2023-02-26T01:06:10;94415.78;;;-2.61;100.00
2000;BME280;1001;48.87406500;9.59633600;2023-02-26T01:08:43;94411.63;;;-2.62;100.00
2000;BME280;1001;48.87406500;9.59633600;2023-02-26T01:11:13;94414.53;;;-2.65;100.00
2000;BME280;1001;48.87406500;9.59633600;2023-02-26T01:13:42;94414.53;;;-2.65;100.00
2000;BME280;1001;48.87406500;9.59633600;2023-02-26T01:16:15;94408.63;;;-2.66;100.00
2000;BME280;1001;48.87406500;9.59633600;2023-02-26T01:18:48;94407.97;;;-2.68;100.00
2000;BME280;1001;48.87406500;9.59633600;2023-02-26T01:21:21;94404.00;;;-2.70;100.00
2000;BME280;1001;48.87406500;9.59633600;2023-02-26T01:23:50;94408.47;;;-2.72;100.00
2000;BME280;1001;48.87406500;9.59633600;2023-02-26T01:26:21;94415.19;;;-2.71;100.00
2000;BME280;1001;48.87406500;9.59633600;2023-02-26T01:28:50;94406.69;;;-2.72;100.00
2000;BME280;1001;48.87406500;9.59633600;2023-02-26T01:31:28;94414.88;;;-2.77;100.00
2000;BME280;1001;48.87406500;9.59633600;2023-02-26T01:33:59;94413.13;;;-2.76;100.00
2000;BME280;1001;48.87406500;9.59633600;2023-02-26T01:36:33;94417.28;;;-2.75;100.00
2000;BME280;1001;48.87406500;9.59633600;2023-02-26T01:39:05;94414.88;;;-2.77;100.00
2000;BME280;1001;48.87406500;9.59633600;2023-02-26T01:41:37;94417.78;;;-2.80;100.00
2000;BME280;1001;48.87406500;9.59633600;2023-02-26T01:44:13;94417.91;;;-2.81;100.00
2000;BME280;1001;48.87406500;9.59633600;2023-02-26T01:46:53;94418.28;;;-2.84;100.00
2000;BME280;1001;48.87406500;9.59633600;2023-02-26T01:49:23;94416.66;;;-2.77;100.00
2000;BME280;1001;48.87406500;9.59633600;2023-02-26T01:51:52;94420.16;;;-2.78;100.00
2000;BME280;1001;48.87406500;9.59633600;2023-02-26T01:54:22;94421.59;;;-2.76;100.00
2000;BME280;1001;48.87406500;9.59633600;2023-02-26T01:56:51;94420.16;;;-2.78;100.00
2000;BME280;1001;48.87406500;9.59633600;2023-02-26T01:59:22;94417.59;;;-2.78;100.00
2000;BME280;1001;48.87406500;9.59633600;2023-02-26T02:01:51;94411.72;;;-2.87;100.00
2000;BME280;1001;48.87406500;9.59633600;2023-02-26T02:04:18;94414.09;;;-2.85;100.00
2000;BME280;1001;48.87406500;9.59633600;2023-02-26T02:06:46;94415.66;;;-2.76;100.00
2000;BME280;1001;48.87406500;9.59633600;2023-02-26T02:09:13;94418.09;;;-2.83;100.00
2000;BME280;1001;48.87406500;9.59633600;2023-02-26T02:11:51;94419.03;;;-2.84;100.00
2000;BME280;1001;48.87406500;9.59633600;2023-02-26T02:14:30;94418.91;;;-2.90;100.00
2000;BME280;1001;48.87406500;9.59633600;2023-02-26T02:17:06;94423.84;;;-2.89;100.00
2000;BME280;1001;48.87406500;9.59633600;2023-02-26T02:20:22;94427.56;;;-2.91;100.00
2000;BME280;1001;48.87406500;9.59633600;2023-02-26T02:23:01;94427.88;;;-2.94;100.00
2000;BME280;1001;48.87406500;9.59633600;2023-02-26T02:28:38;94430.63;;;-3.04;100.00
2000;BME280;1001;48.87406500;9.59633600;2023-02-26T02:31:10;94431.41;;;-3.03;100.00
2000;BME280;1001;48.87406500;9.59633600;2023-02-26T02:33:43;94439.41;;;-3.06;100.00
2000;BME280;1001;48.87406500;9.59633600;2023-02-26T02:36:16;94437.97;;;-3.09;100.00
2000;BME280;1001;48.87406500;9.59633600;2023-02-26T02:38:50;94429.34;;;-3.08;100.00
2000;BME280;1001;48.87406500;9.59633600;2023-02-26T02:41:21;94434.91;;;-3.12;100.00
2000;BME280;1001;48.87406500;9.59633600;2023-02-26T02:43:50;94447.25;;;-3.08;100.00
2000;BME280;1001;48.87406500;9.59633600;2023-02-26T02:46:22;94445.47;;;-3.07;100.00
2000;BME280;1001;48.87406500;9.59633600;2023-02-26T02:48:54;94450.09;;;-3.03;100.00
2000;BME280;1001;48.87406500;9.59633600;2023-02-26T02:51:25;94457.00;;;-3.11;100.00
2000;BME280;1001;48.87406500;9.59633600;2023-02-26T02:53:56;94450.59;;;-3.07;100.00
2000;BME280;1001;48.87406500;9.59633600;2023-02-26T02:56:26;94452.81;;;-3.04;100.00
2000;BME280;1001;48.87406500;9.59633600;2023-02-26T02:59:00;94448.34;;;-2.94;100.00
2000;BME280;1001;48.87406500;9.59633600;2023-02-26T03:01:32;94443.09;;;-3.01;100.00
2000;BME280;1001;48.87406500;9.59633600;2023-02-26T03:04:04;94441.66;;;-3.03;100.00
2000;BME280;1001;48.87406500;9.59633600;2023-02-26T03:06:32;94447.88;;;-3.06;100.00
2000;BME280;1001;48.87406500;9.59633600;2023-02-26T03:08:59;94448.03;;;-3.07;100.00
2000;BME280;1001;48.87406500;9.59633600;2023-02-26T03:11:28;94455.06;;;-3.01;100.00
2000;BME280;1001;48.87406500;9.59633600;2023-02-26T03:13:55;94454.56;;;-3.05;100.00
2000;BME280;1001;48.87406500;9.59633600;2023-02-26T03:16:32;94461.63;;;-3.15;100.00
2000;BME280;1001;48.87406500;9.59633600;2023-02-26T03:19:10;94463.03;;;-3.12;100.00
2000;BME280;1001;48.87406500;9.59633600;2023-02-26T03:21:46;94468.66;;;-3.17;100.00
2000;BME280;1001;48.87406500;9.59633600;2023-02-26T03:24:17;94473.28;;;-3.12;100.00
2000;BME280;1001;48.87406500;9.59633600;2023-02-26T03:26:49;94469.44;;;-3.08;100.00
2000;BME280;1001;48.87406500;9.59633600;2023-02-26T03:29:27;94468.66;;;-3.17;100.00
2000;BME280;1001;48.87406500;9.59633600;2023-02-26T03:32:02;94470.72;;;-3.12;100.00
2000;BME280;1001;48.87406500;9.59633600;2023-02-26T03:34:35;94471.69;;;-3.21;100.00
2000;BME280;1001;48.87406500;9.59633600;2023-02-26T03:37:05;94474.25;;;-3.29;100.00
2000;BME280;1001;48.87406500;9.59633600;2023-02-26T03:39:37;94473.28;;;-3.28;100.00
2000;BME280;1001;48.87406500;9.59633600;2023-02-26T03:42:07;94469.47;;;-3.32;100.00
2000;BME280;1001;48.87406500;9.59633600;2023-02-26T03:44:38;94477.63;;;-3.29;100.00
2000;BME280;1001;48.87406500;9.59633600;2023-02-26T03:47:10;94482.72;;;-3.29;100.00
2000;BME280;1001;48.87406500;9.59633600;2023-02-26T03:49:43;94479.19;;;-3.36;100.00
2000;BME280;1001;48.87406500;9.59633600;2023-02-26T03:52:11;94490.88;;;-3.41;100.00
2000;BME280;1001;48.87406500;9.59633600;2023-02-26T03:54:41;94493.09;;;-3.47;100.00
2000;BME280;1001;48.87406500;9.59633600;2023-02-26T03:57:09;94486.72;;;-3.51;100.00
2000;BME280;1001;48.87406500;9.59633600;2023-02-26T03:59:35;94490.88;;;-3.41;100.00
2000;BME280;1001;48.87406500;9.59633600;2023-02-26T04:02:03;94492.28;;;-3.47;100.00
2000;BME280;1001;48.87406500;9.59633600;2023-02-26T04:04:34;94493.75;;;-3.53;100.00
2000;BME280;1001;48.87406500;9.59633600;2023-02-26T04:07:07;94499.31;;;-3.49;100.00
2000;BME280;1001;48.87406500;9.59633600;2023-02-26T04:09:33;94501.06;;;-3.50;100.00
2000;BME280;1001;48.87406500;9.59633600;2023-02-26T04:12:00;94496.78;;;-3.41;100.00
2000;BME280;1001;48.87406500;9.59633600;2023-02-26T04:14:27;94495.81;;;-3.48;100.00
2000;BME280;1001;48.87406500;9.59633600;2023-02-26T04:16:54;94497.72;;;-3.58;100.00
2000;BME280;1001;48.87406500;9.59633600;2023-02-26T04:19:20;94496.59;;;-3.64;100.00
2000;BME280;1001;48.87406500;9.59633600;2023-02-26T04:21:48;94504.25;;;-3.64;100.00
2000;BME280;1001;48.87406500;9.59633600;2023-02-26T04:24:15;94505.53;;;-3.68;100.00
2000;BME280;1001;48.87406500;9.59633600;2023-02-26T04:26:41;94505.22;;;-3.65;100.00
2000;BME280;1001;48.87406500;9.59633600;2023-02-26T04:29:08;94509.53;;;-3.65;100.00
2000;BME280;1001;48.87406500;9.59633600;2023-02-26T04:31:34;94509.81;;;-3.68;100.00
2000;BME280;1001;48.87406500;9.59633600;2023-02-26T04:34:01;94504.25;;;-3.72;100.00
2000;BME280;1001;48.87406500;9.59633600;2023-02-26T04:36:28;94513.97;;;-3.75;100.00
2000;BME280;1001;48.87406500;9.59633600;2023-02-26T04:38:56;94503.44;;;-3.72;100.00
2000;BME280;1001;48.87406500;9.59633600;2023-02-26T04:41:23;94504.25;;;-3.72;100.00
2000;BME280;1001;48.87406500;9.59633600;2023-02-26T04:43:50;94519.72;;;-3.73;100.00
2000;BME280;1001;48.87406500;9.59633600;2023-02-26T04:46:16;94521.28;;;-3.80;100.00
2000;BME280;1001;48.87406500;9.59633600;2023-02-26T04:48:43;94518.25;;;-3.76;100.00
2000;BME280;1001;48.87406500;9.59633600;2023-02-26T04:51:09;94524.00;;;-3.82;100.00
2000;BME280;1001;48.87406500;9.59633600;2023-02-26T04:53:36;94531.69;;;-3.82;100.00
2000;BME280;1001;48.87406500;9.59633600;2023-02-26T04:56:04;94533.59;;;-3.84;100.00
2000;BME280;1001;48.87406500;9.59633600;2023-02-26T04:58:32;94540.28;;;-3.83;100.00
2000;BME280;1001;48.87406500;9.59633600;2023-02-26T05:00:58;94539.81;;;-3.78;100.00
2000;BME280;1001;48.87406500;9.59633600;2023-02-26T05:03:25;94547.81;;;-3.81;100.00
2000;BME280;1001;48.87406500;9.59633600;2023-02-26T05:05:52;94548.41;;;-3.87;100.00
2000;BME280;1001;48.87406500;9.59633600;2023-02-26T05:08:18;94553.50;;;-3.87;100.00
2000;BME280;1001;48.87406500;9.59633600;2023-02-26T05:10:45;94555.94;;;-3.86;100.00
2000;BME280;1001;48.87406500;9.59633600;2023-02-26T05:13:13;94551.13;;;-3.81;100.00
2000;BME280;1001;48.87406500;9.59633600;2023-02-26T05:15:39;94553.69;;;-3.81;100.00
2000;BME280;1001;48.87406500;9.59633600;2023-02-26T05:18:06;94553.38;;;-3.78;100.00
2000;BME280;1001;48.87406500;9.59633600;2023-02-26T05:20:32;94558.97;;;-3.82;100.00
2000;BME280;1001;48.87406500;9.59633600;2023-02-26T05:22:59;94558.50;;;-3.78;100.00
2000;BME280;1001;48.87406500;9.59633600;2023-02-26T05:25:25;94559.13;;;-3.76;100.00
2000;BME280;1001;48.87406500;9.59633600;2023-02-26T05:27:52;94561.03;;;-3.78;100.00
2000;BME280;1001;48.87406500;9.59633600;2023-02-26T05:30:21;94558.34;;;-3.76;100.00
2000;BME280;1001;48.87406500;9.59633600;2023-02-26T05:32:48;94563.75;;;-3.79;100.00
2000;BME280;1001;48.87406500;9.59633600;2023-02-26T05:35:14;94564.41;;;-3.77;100.00
2000;BME280;1001;48.87406500;9.59633600;2023-02-26T05:37:41;94558.16;;;-3.83;100.00
2000;BME280;1001;48.87406500;9.59633600;2023-02-26T05:40:09;94567.59;;;-3.83;100.00
2000;BME280;1001;48.87406500;9.59633600;2023-02-26T05:42:36;94570.91;;;-3.83;100.00
2000;BME280;1001;48.87406500;9.59633600;2023-02-26T05:45:03;94575.03;;;-3.90;100.00
2000;BME280;1001;48.87406500;9.59633600;2023-02-26T05:47:31;94584.44;;;-3.90;100.00
2000;BME280;1001;48.87406500;9.59633600;2023-02-26T05:49:58;94588.28;;;-3.94;100.00
2000;BME280;1001;48.87406500;9.59633600;2023-02-26T05:52:25;94581.91;;;-3.90;100.00
2000;BME280;1001;48.87406500;9.59633600;2023-02-26T05:54:51;94588.78;;;-3.91;100.00
2000;BME280;1001;48.87406500;9.59633600;2023-02-26T05:57:18;94585.25;;;-3.90;100.00
2000;BME280;1001;48.87406500;9.59633600;2023-02-26T05:59:44;94597.44;;;-3.84;100.00
2000;BME280;1001;48.87406500;9.59633600;2023-02-26T06:02:11;94601.91;;;-3.86;100.00
2000;BME280;1001;48.87406500;9.59633600;2023-02-26T06:04:39;94599.00;;;-3.83;100.00
2000;BME280;1001;48.87406500;9.59633600;2023-02-26T06:07:06;94598.75;;;-3.72;100.00
2000;BME280;1001;48.87406500;9.59633600;2023-02-26T06:09:32;94603.53;;;-3.77;100.00
2000;BME280;1001;48.87406500;9.59633600;2023-02-26T06:11:59;94608.00;;;-3.71;100.00
2000;BME280;1001;48.87406500;9.59633600;2023-02-26T06:14:25;94605.47;;;-3.63;100.00
2000;BME280;1001;48.87406500;9.59633600;2023-02-26T06:16:52;94607.06;;;-3.62;100.00
2000;BME280;1001;48.87406500;9.59633600;2023-02-26T06:19:18;94614.94;;;-3.55;100.00
2000;BME280;1001;48.87406500;9.59633600;2023-02-26T06:21:47;94613.66;;;-3.51;100.00
2000;BME280;1001;48.87406500;9.59633600;2023-02-26T06:24:14;94618.13;;;-3.53;100.00
2000;BME280;1001;48.87406500;9.59633600;2023-02-26T06:26:40;94623.88;;;-3.51;100.00
2000;BME280;1001;48.87406500;9.59633600;2023-02-26T06:29:07;94621.16;;;-3.50;100.00
2000;BME280;1001;48.87406500;9.59633600;2023-02-26T06:31:33;94637.50;;;-3.34;100.00
2000;BME280;1001;48.87406500;9.59633600;2023-02-26T06:34:00;94637.19;;;-3.31;100.00
2000;BME280;1001;48.87406500;9.59633600;2023-02-26T06:36:27;94641.03;;;-3.19;100.00
2000;BME280;1001;48.87406500;9.59633600;2023-02-26T06:38:55;94649.69;;;-3.20;100.00
2000;BME280;1001;48.87406500;9.59633600;2023-02-26T06:41:21;94650.63;;;-3.21;100.00
2000;BME280;1001;48.87406500;9.59633600;2023-02-26T06:43:48;94649.69;;;-3.20;100.00
2000;BME280;1001;48.87406500;9.59633600;2023-02-26T06:46:14;94650.50;;;-3.12;100.00
2000;BME280;1001;48.87406500;9.59633600;2023-02-26T06:48:41;94656.75;;;-3.06;100.00
2000;BME280;1001;48.87406500;9.59633600;2023-02-26T06:51:07;94657.56;;;-2.90;100.00
2000;BME280;1001;48.87406500;9.59633600;2023-02-26T06:53:34;94652.28;;;-2.88;100.00
2000;BME280;1001;48.87406500;9.59633600;2023-02-26T06:56:03;94653.41;;;-2.99;100.00
2000;BME280;1001;48.87406500;9.59633600;2023-02-26T06:58:29;94657.25;;;-2.87;100.00
2000;BME280;1001;48.87406500;9.59633600;2023-02-26T07:00:56;94664.75;;;-3.01;100.00
2000;BME280;1001;48.87406500;9.59633600;2023-02-26T07:03:22;94669.34;;;-3.05;100.00
2000;BME280;1001;48.87406500;9.59633600;2023-02-26T07:05:49;94671.44;;;-3.08;100.00
2000;BME280;1001;48.87406500;9.59633600;2023-02-26T07:08:16;94675.91;;;-3.02;100.00
2000;BME280;1001;48.87406500;9.59633600;2023-02-26T07:10:42;94683.75;;;-3.04;100.00
2000;BME280;1001;48.87406500;9.59633600;2023-02-26T07:13:11;94686.03;;;-2.77;100.00
2000;BME280;1001;48.87406500;9.59633600;2023-02-26T07:15:38;94689.06;;;-2.81;100.00
2000;BME280;1001;48.87406500;9.59633600;2023-02-26T07:18:05;94693.88;;;-2.62;100.00
2000;BME280;1001;48.87406500;9.59633600;2023-02-26T07:20:31;94697.72;;;-2.50;100.00
2000;BME280;1001;48.87406500;9.59633600;2023-02-26T07:22:58;94699.03;;;-2.54;100.00
2000;BME280;1001;48.87406500;9.59633600;2023-02-26T07:25:25;94701.75;;;-2.23;100.00
2000;BME280;1001;48.87406500;9.59633600;2023-02-26T07:27:52;94698.38;;;-2.16;100.00
2000;BME280;1001;48.87406500;9.59633600;2023-02-26T07:30:20;94706.97;;;-1.84;100.00
2000;BME280;1001;48.87406500;9.59633600;2023-02-26T07:32:47;94702.50;;;-1.82;100.00
2000;BME280;1001;48.87406500;9.59633600;2023-02-26T07:35:13;94703.34;;;-1.35;100.00
2000;BME280;1001;48.87406500;9.59633600;2023-02-26T07:37:40;94706.19;;;-0.99;100.00
2000;BME280;1001;48.87406500;9.59633600;2023-02-26T07:40:08;94704.09;;;-1.26;100.00
2000;BME280;1001;48.87406500;9.59633600;2023-02-26T07:42:34;94704.84;;;-1.18;100.00
2000;BME280;1001;48.87406500;9.59633600;2023-02-26T07:45:02;94708.09;;;-1.24;100.00
2000;BME280;1001;48.87406500;9.59633600;2023-02-26T07:47:30;94710.03;;;-1.34;100.00
2000;BME280;1001;48.87406500;9.59633600;2023-02-26T07:49:56;94702.97;;;-1.24;100.00
2000;BME280;1001;48.87406500;9.59633600;2023-02-26T07:52:23;94706.53;;;-1.33;100.00
2000;BME280;1001;48.87406500;9.59633600;2023-02-26T07:54:49;94707.84;;;-1.45;99.74
2000;BME280;1001;48.87406500;9.59633600;2023-02-26T07:57:16;94713.97;;;-1.15;99.58
2000;BME280;1001;48.87406500;9.59633600;2023-02-26T07:59:43;94709.53;;;-0.91;99.04
2000;BME280;1001;48.87406500;9.59633600;2023-02-26T08:02:10;94722.16;;;-0.81;98.48
2000;BME280;1001;48.87406500;9.59633600;2023-02-26T08:04:38;94722.06;;;-0.96;98.56
2000;BME280;1001;48.87406500;9.59633600;2023-02-26T08:07:07;94732.66;;;-1.38;99.35
2000;BME280;1001;48.87406500;9.59633600;2023-02-26T08:09:33;94712.22;;;-1.62;99.27
2000;BME280;1001;48.87406500;9.59633600;2023-02-26T08:12:00;94732.88;;;-1.63;100.00
2000;BME280;1001;48.87406500;9.59633600;2023-02-26T08:14:26;94721.16;;;-1.58;100.00
2000;BME280;1001;48.87406500;9.59633600;2023-02-26T08:16:53;94721.66;;;-1.54;99.52
2000;BME280;1001;48.87406500;9.59633600;2023-02-26T08:19:19;94722.44;;;-1.46;99.03
2000;BME280;1001;48.87406500;9.59633600;2023-02-26T08:21:47;94734.53;;;-1.23;98.03
2000;BME280;1001;48.87406500;9.59633600;2023-02-26T08:24:14;94725.53;;;-1.19;97.72
2000;BME280;1001;48.87406500;9.59633600;2023-02-26T08:26:41;94732.72;;;-1.07;99.87
2000;BME280;1001;48.87406500;9.59633600;2023-02-26T08:29:07;94720.84;;;-1.55;97.92
2000;BME280;1001;48.87406500;9.59633600;2023-02-26T08:31:34;94745.38;;;-1.60;99.28
2000;BME280;1001;48.87406500;9.59633600;2023-02-26T08:34:00;94739.19;;;-1.98;100.00
2000;BME280;1001;48.87406500;9.59633600;2023-02-26T08:36:28;94748.13;;;-1.94;100.00
2000;BME280;1001;48.87406500;9.59633600;2023-02-26T08:38:56;94744.13;;;-1.88;100.00
2000;BME280;1001;48.87406500;9.59633600;2023-02-26T08:41:23;94754.66;;;-1.67;100.00
2000;BME280;1001;48.87406500;9.59633600;2023-02-26T08:43:52;94757.06;;;-1.58;100.00
2000;BME280;1001;48.87406500;9.59633600;2023-02-26T08:46:19;94758.34;;;-1.70;99.09
2000;BME280;1001;48.87406500;9.59633600;2023-02-26T08:48:46;94760.44;;;-1.57;99.80
2000;BME280;1001;48.87406500;9.59633600;2023-02-26T08:51:13;94757.56;;;-1.70;99.65
2000;BME280;1001;48.87406500;9.59633600;2023-02-26T08:53:39;94772.56;;;-1.51;98.39
2000;BME280;1001;48.87406500;9.59633600;2023-02-26T08:56:07;94761.38;;;-1.50;97.91
2000;BME280;1001;48.87406500;9.59633600;2023-02-26T08:58:34;94767.16;;;-1.64;98.32
2000;BME280;1001;48.87406500;9.59633600;2023-02-26T09:01:00;94761.22;;;-1.57;98.87
2000;BME280;1001;48.87406500;9.59633600;2023-02-26T09:03:27;94771.03;;;-1.68;99.34
2000;BME280;1001;48.87406500;9.59633600;2023-02-26T09:05:54;94766.19;;;-1.55;98.87
2000;BME280;1001;48.87406500;9.59633600;2023-02-26T09:08:20;94775.63;;;-1.56;98.91
2000;BME280;1001;48.87406500;9.59633600;2023-02-26T09:10:47;94771.94;;;-1.53;98.00
2000;BME280;1001;48.87406500;9.59633600;2023-02-26T09:13:15;94790.16;;;-1.32;98.15
2000;BME280;1001;48.87406500;9.59633600;2023-02-26T09:15:41;94781.34;;;-1.21;99.29
2000;BME280;1001;48.87406500;9.59633600;2023-02-26T09:18:08;94788.66;;;-1.10;99.51
2000;BME280;1001;48.87406500;9.59633600;2023-02-26T09:20:40;94780.53;;;-1.14;97.75
2000;BME280;1001;48.87406500;9.59633600;2023-02-26T09:23:06;94790.59;;;-1.04;98.26
2000;BME280;1001;48.87406500;9.59633600;2023-02-26T09:25:33;94787.03;;;-1.03;97.38
2000;BME280;1001;48.87406500;9.59633600;2023-02-26T09:27:59;94797.81;;;-1.08;96.42
2000;BME280;1001;48.87406500;9.59633600;2023-02-26T09:30:27;94807.97;;;-1.39;97.06
2000;BME280;1001;48.87406500;9.59633600;2023-02-26T09:32:54;94801.84;;;-1.21;97.93
2000;BME280;1001;48.87406500;9.59633600;2023-02-26T09:35:21;94798.94;;;-1.10;97.42
2000;BME280;1001;48.87406500;9.59633600;2023-02-26T09:37:47;94807.25;;;-1.08;97.58
2000;BME280;1001;48.87406500;9.59633600;2023-02-26T09:40:22;94805.19;;;-1.05;97.22
2000;BME280;1001;48.87406500;9.59633600;2023-02-26T09:43:06;94809.00;;;-0.93;96.83
2000;BME280;1001;48.87406500;9.59633600;2023-02-26T09:45:42;94818.81;;;-1.04;94.76
2000;BME280;1001;48.87406500;9.59633600;2023-02-26T09:48:13;94822.44;;;-0.91;96.21
2000;BME280;1001;48.87406500;9.59633600;2023-02-26T09:50:45;94822.88;;;-0.71;95.76
2000;BME280;1001;48.87406500;9.59633600;2023-02-26T09:53:17;94831.88;;;-0.44;95.66
2000;BME280;1001;48.87406500;9.59633600;2023-02-26T09:55:47;94834.75;;;-0.39;94.59
2000;BME280;1001;48.87406500;9.59633600;2023-02-26T09:58:18;94832.78;;;-0.68;93.99
2000;BME280;1001;48.87406500;9.59633600;2023-02-26T10:00:55;94833.13;;;-0.71;95.02
2000;BME280;1001;48.87406500;9.59633600;2023-02-26T10:03:28;94833.59;;;-0.68;95.02
2000;BME280;1001;48.87406500;9.59633600;2023-02-26T10:06:16;94837.56;;;-0.57;94.06
2000;BME280;1001;48.87406500;9.59633600;2023-02-26T10:08:53;94837.28;;;-0.70;93.74
2000;BME280;1001;48.87406500;9.59633600;2023-02-26T10:11:28;94837.72;;;-0.58;95.62
2000;BME280;1001;48.87406500;9.59633600;2023-02-26T10:13:58;94833.78;;;-0.85;95.06
2000;BME280;1001;48.87406500;9.59633600;2023-02-26T10:16:34;94838.38;;;-1.11;94.86
2000;BME280;1001;48.87406500;9.59633600;2023-02-26T10:19:05;94842.16;;;-0.83;95.21
2000;BME280;1001;48.87406500;9.59633600;2023-02-26T10:21:36;94831.22;;;-0.77;96.12
2000;BME280;1001;48.87406500;9.59633600;2023-02-26T10:24:10;94841.84;;;-0.88;96.03
2000;BME280;1001;48.87406500;9.59633600;2023-02-26T10:26:41;94844.78;;;-0.60;95.14
2000;BME280;1001;48.87406500;9.59633600;2023-02-26T10:29:16;94838.09;;;-0.70;95.20
2000;BME280;1001;48.87406500;9.59633600;2023-02-26T10:31:56;94845.81;;;-0.78;94.44
2000;BME280;1001;48.87406500;9.59633600;2023-02-26T10:34:29;94854.94;;;-0.67;95.47
2000;BME280;1001;48.87406500;9.59633600;2023-02-26T10:37:03;94846.53;;;-0.53;94.41
2000;BME280;1001;48.87406500;9.59633600;2023-02-26T10:39:40;94855.47;;;-0.41;94.22
2000;BME280;1001;48.87406500;9.59633600;2023-02-26T10:42:13;94858.47;;;-0.37;94.18
2000;BME280;1001;48.87406500;9.59633600;2023-02-26T10:44:48;94865.66;;;-0.02;92.22
2000;BME280;1001;48.87406500;9.59633600;2023-02-26T10:47:22;94864.03;;;-0.26;90.95
2000;BME280;1001;48.87406500;9.59633600;2023-02-26T10:49:57;94867.88;;;0.09;91.87
2000;BME280;1001;48.87406500;9.59633600;2023-02-26T10:52:26;94864.00;;;-0.18;91.04
2000;BME280;1001;48.87406500;9.59633600;2023-02-26T10:55:02;94862.03;;;0.15;92.94
2000;BME280;1001;48.87406500;9.59633600;2023-02-26T10:57:30;94873.81;;;0.32;91.93
2000;BME280;1001;48.87406500;9.59633600;2023-02-26T10:59:58;94873.72;;;0.40;91.93
2000;BME280;1001;48.87406500;9.59633600;2023-02-26T11:02:35;94868.84;;;-0.23;90.08
2000;BME280;1001;48.87406500;9.59633600;2023-02-26T11:05:05;94872.66;;;0.12;91.80
2000;BME280;1001;48.87406500;9.59633600;2023-02-26T11:07:35;94873.81;;;0.32;91.03
2000;BME280;1001;48.87406500;9.59633600;2023-02-26T11:10:03;94872.91;;;0.25;90.64
2000;BME280;1001;48.87406500;9.59633600;2023-02-26T11:12:31;94859.41;;;0.23;92.05
2000;BME280;1001;48.87406500;9.59633600;2023-02-26T11:14:59;94854.19;;;0.31;89.79
2000;BME280;1001;48.87406500;9.59633600;2023-02-26T11:17:28;94853.34;;;0.39;90.38
2000;BME280;1001;48.87406500;9.59633600;2023-02-26T11:20:00;94854.44;;;0.22;89.09
2000;BME280;1001;48.87406500;9.59633600;2023-02-26T11:22:32;94856.91;;;0.38;90.12
2000;BME280;1001;48.87406500;9.59633600;2023-02-26T11:25:01;94851.47;;;0.70;88.47
2000;BME280;1001;48.87406500;9.59633600;2023-02-26T11:27:31;94863.41;;;0.26;88.66
2000;BME280;1001;48.87406500;9.59633600;2023-02-26T11:30:06;94857.00;;;-0.01;90.27
2000;BME280;1001;48.87406500;9.59633600;2023-02-26T11:32:37;94855.88;;;0.02;91.69
2000;BME280;1001;48.87406500;9.59633600;2023-02-26T11:35:07;94836.75;;;-0.27;92.26
2000;BME280;1001;48.87406500;9.59633600;2023-02-26T11:37:35;94866.47;;;-0.02;92.37
2000;BME280;1001;48.87406500;9.59633600;2023-02-26T11:40:05;94872.19;;;0.09;91.88
2000;BME280;1001;48.87406500;9.59633600;2023-02-26T11:42:37;94875.13;;;0.28;91.82
2000;BME280;1001;48.87406500;9.59633600;2023-02-26T11:45:05;94869.06;;;0.21;91.69
2000;BME280;1001;48.87406500;9.59633600;2023-02-26T11:47:33;94867.97;;;0.16;90.55
2000;BME280;1001;48.87406500;9.59633600;2023-02-26T11:50:02;94865.34;;;0.01;91.87
2000;BME280;1001;48.87406500;9.59633600;2023-02-26T11:52:35;94865.03;;;-0.04;89.75